Welcome to La Porte Aviation Services!

An aviation adventure awaits

Current Weather Conditions

Available data for KPPO from the past 2 hours
LA PORTE, IN
Metar
KPPO 200515Z AUTO 03015G25KT 10SM -SN BKN070 OVC080 M09/M14 A3003 RMK AO2 T10921137

05:15 UTC

Wind: 30° 15kt

Visibility: 10 SM

Sky: BKN 7000 ft

Temp: -9 deg C / 15.8 deg F

Dewpoint: -14 deg C / 6.8 deg F

Pressure: 30.03 inHg

Connect with us on Facebook!

Facebook By Weblizar Powered By Weblizar